Time;durP1;ratioP1;P1;durP2;ratioP2;P2;SDS_P1;SDS_P2;PMS_P1;PMS_P2;Temp;Humidity;BMP_temperature;BMP_pressure;BME280_temperature;BME280_humidity;BME280_pressure;Samples;Min_cycle;Max_cycle;Signal;HPM_P1;HPM_P2
2023/08/23 00:00:10;;;;;;;7.95;2.22;;;;;;;26.96;49.35;99754.44;5033338;28;20056;-87
2023/08/23 00:02:36;;;;;;;4.03;2.50;;;;;;;26.96;49.44;99762.56;5031501;28;20030;-85
2023/08/23 00:05:01;;;;;;;4.55;2.65;;;;;;;26.95;49.84;99771.66;5032223;28;20052;-86
2023/08/23 00:07:27;;;;;;;4.63;2.58;;;;;;;26.95;49.69;99763.53;5032878;28;20033;-86
2023/08/23 00:09:53;;;;;;;4.00;2.78;;;;;;;26.84;50.37;99760.00;5033084;28;20037;-86
2023/08/23 00:12:18;;;;;;;3.47;2.33;;;;;;;26.83;50.25;99756.44;5032356;28;20041;-87
2023/08/23 00:14:44;;;;;;;3.63;2.38;;;;;;;26.97;49.36;99769.69;5032551;28;20030;-86
2023/08/23 00:17:09;;;;;;;3.83;2.15;;;;;;;26.86;49.35;99750.75;5031022;28;20099;-86
2023/08/23 00:19:35;;;;;;;3.17;2.50;;;;;;;26.89;50.46;99791.09;5032044;28;20045;-86
2023/08/23 00:22:00;;;;;;;4.78;3.28;;;;;;;26.64;50.02;99759.75;5031902;28;20440;-86
2023/08/23 00:24:26;;;;;;;4.28;2.47;;;;;;;26.62;50.19;99751.75;5033171;28;20029;-86
2023/08/23 00:26:54;;;;;;;5.00;2.25;;;;;;;26.73;50.53;99767.16;5032519;28;20029;-86
2023/08/23 00:29:19;;;;;;;5.13;2.92;;;;;;;26.75;50.32;99770.56;5030763;28;20525;-86
2023/08/23 00:31:45;;;;;;;2.95;2.13;;;;;;;26.56;50.05;99741.44;5032935;28;20029;-86
2023/08/23 00:34:10;;;;;;;6.85;3.20;;;;;;;26.62;50.62;99776.09;5030979;28;20033;-86
2023/08/23 00:36:36;;;;;;;6.38;3.53;;;;;;;26.41;51.92;99764.31;5032103;28;20052;-86
2023/08/23 00:39:01;;;;;;;5.30;3.78;;;;;;;26.62;52.50;99791.47;5032405;28;20096;-88
2023/08/23 00:41:27;;;;;;;3.22;2.47;;;;;;;26.28;52.93;99726.59;5013140;28;20029;-86
2023/08/23 00:43:52;;;;;;;2.70;2.10;;;;;;;26.33;53.04;99742.44;5014757;28;20044;-85
2023/08/23 00:46:19;;;;;;;6.05;3.55;;;;;;;26.51;53.63;99781.53;5032500;28;20036;-86
2023/08/23 00:48:46;;;;;;;4.00;2.53;;;;;;;26.58;54.09;99776.47;5031435;28;20033;-85
2023/08/23 00:51:13;;;;;;;4.40;2.63;;;;;;;26.75;53.83;99781.41;5029897;28;20492;-87
2023/08/23 00:53:39;;;;;;;5.28;3.38;;;;;;;26.83;53.57;99771.81;5031227;28;20048;-86
2023/08/23 00:56:05;;;;;;;5.22;3.42;;;;;;;27.05;53.13;99779.00;5032500;28;20376;-85
2023/08/23 00:58:32;;;;;;;7.07;3.42;;;;;;;26.80;53.23;99741.31;5032124;28;20405;-86
2023/08/23 01:00:57;;;;;;;5.15;3.10;;;;;;;27.07;53.01;99785.19;5013194;28;20118;-85
2023/08/23 01:03:23;;;;;;;4.72;3.10;;;;;;;27.23;52.50;99801.84;5031184;28;20110;-85
2023/08/23 01:06:10;;;;;;;4.85;2.53;;;;;;;27.25;52.73;99801.72;5031704;28;20038;-85
2023/08/23 01:08:47;;;;;;;7.03;3.72;;;;;;;27.14;52.52;99772.84;5031316;28;20443;-85
2023/08/23 01:11:35;;;;;;;4.05;2.28;;;;;;;27.21;52.41;99800.28;5031154;28;20087;-85
2023/08/23 01:14:13;;;;;;;7.18;3.38;;;;;;;27.23;51.80;99793.72;5022814;28;20025;-85
2023/08/23 01:16:42;;;;;;;3.75;2.60;;;;;;;27.25;51.63;99805.31;5013591;28;20403;-85
2023/08/23 01:19:40;;;;;;;5.03;3.50;;;;;;;26.96;51.13;99762.56;5012709;28;20096;-85
2023/08/23 01:22:09;;;;;;;4.32;2.28;;;;;;;27.11;51.43;99784.81;5014020;28;20033;-85
2023/08/23 01:24:35;;;;;;;3.95;2.60;;;;;;;27.06;51.92;99786.16;5031319;28;20133;-85
2023/08/23 01:27:00;;;;;;;5.63;3.83;;;;;;;26.88;52.09;99759.63;5030960;28;20124;-85
2023/08/23 01:29:26;;;;;;;4.55;2.95;;;;;;;27.08;51.93;99789.59;5031962;28;20055;-85
2023/08/23 01:31:56;;;;;;;2.95;2.22;;;;;;;26.99;52.38;99774.97;5031717;28;20060;-86
2023/08/23 01:34:34;;;;;;;4.47;2.45;;;;;;;26.85;52.42;99762.59;5029648;28;20123;-85
2023/08/23 01:37:03;;;;;;;5.82;3.72;;;;;;;26.83;53.29;99791.59;5013913;28;20076;-86
2023/08/23 01:39:30;;;;;;;6.65;3.78;;;;;;;26.67;53.60;99783.88;5029744;28;20057;-87
2023/08/23 01:41:56;;;;;;;3.08;2.35;;;;;;;26.47;53.75;99754.84;5023691;28;20091;-89
2023/08/23 01:44:21;;;;;;;9.80;4.00;;;;;;;26.59;53.53;99778.22;5029585;28;20060;-86
2023/08/23 01:46:47;;;;;;;5.85;3.33;;;;;;;26.71;53.79;99804.31;5031283;28;20053;-86
2023/08/23 01:49:12;;;;;;;4.78;2.50;;;;;;;26.53;53.76;99773.28;5031041;28;20037;-86
2023/08/23 01:51:38;;;;;;;5.63;3.70;;;;;;;26.58;53.66;99785.44;5030972;28;20061;-86
2023/08/23 01:54:03;;;;;;;5.07;2.97;;;;;;;26.51;53.52;99777.94;5028036;28;20856;-86
2023/08/23 01:56:29;;;;;;;4.53;3.28;;;;;;;26.49;53.74;99797.00;5030245;28;20459;-85
2023/08/23 01:58:54;;;;;;;3.47;2.45;;;;;;;26.22;54.10;99759.53;5030881;28;20112;-86
2023/08/23 02:01:20;;;;;;;5.25;3.05;;;;;;;26.33;54.13;99789.25;5030141;28;20034;-85
2023/08/23 02:03:46;;;;;;;9.18;3.25;;;;;;;26.02;54.56;99783.56;5030582;28;20491;-87
2023/08/23 02:06:11;;;;;;;5.32;3.30;;;;;;;25.95;54.92;99771.50;5027931;28;20056;-85
2023/08/23 02:08:38;;;;;;;7.20;3.00;;;;;;;26.04;54.78;99792.44;5029164;28;20507;-85
2023/08/23 02:11:03;;;;;;;6.55;3.58;;;;;;;25.73;55.13;99775.88;5029673;28;20037;-85
2023/08/23 02:13:29;;;;;;;7.22;3.55;;;;;;;25.68;55.64;99769.09;5026158;28;20466;-85
2023/08/23 02:15:54;;;;;;;7.03;3.65;;;;;;;25.82;55.45;99779.69;5016120;28;20037;-85
2023/08/23 02:18:21;;;;;;;7.35;3.38;;;;;;;25.84;55.27;99801.16;5029979;28;20056;-85
2023/08/23 02:20:57;;;;;;;6.70;4.03;;;;;;;25.79;55.72;99814.19;5030154;28;20078;-87
2023/08/23 02:23:23;;;;;;;6.03;3.33;;;;;;;25.61;55.44;99782.22;5029823;28;20033;-85
2023/08/23 02:25:48;;;;;;;6.05;3.35;;;;;;;25.64;55.43;99802.69;5029831;28;20044;-86
2023/08/23 02:28:13;;;;;;;5.00;2.83;;;;;;;25.37;55.57;99769.56;5028743;28;20116;-85
2023/08/23 02:30:39;;;;;;;8.10;2.92;;;;;;;25.47;55.80;99795.88;5030477;28;20033;-84
2023/08/23 02:33:04;;;;;;;4.43;2.47;;;;;;;25.37;56.10;99788.47;5030361;28;20487;-85
2023/08/23 02:35:30;;;;;;;3.97;2.65;;;;;;;25.17;56.53;99789.94;5011848;28;20027;-86
2023/08/23 02:37:57;;;;;;;5.28;3.65;;;;;;;25.02;56.30;99761.38;5028858;28;20042;-85
2023/08/23 02:40:23;;;;;;;5.13;3.03;;;;;;;25.21;56.47;99790.59;5030286;28;20040;-85
2023/08/23 02:42:48;;;;;;;5.85;3.38;;;;;;;25.00;56.51;99783.09;5011640;28;20041;-86
2023/08/23 02:45:14;;;;;;;5.25;3.40;;;;;;;24.91;56.53;99764.88;5030484;28;20040;-85
2023/08/23 02:47:39;;;;;;;3.75;2.35;;;;;;;24.65;56.65;99746.09;5027628;28;20037;-86
2023/08/23 02:50:05;;;;;;;5.38;3.10;;;;;;;24.85;57.05;99786.91;5030284;28;20414;-86
2023/08/23 02:52:31;;;;;;;4.60;3.40;;;;;;;24.67;57.49;99768.41;5029713;28;20439;-86
2023/08/23 02:54:56;;;;;;;5.55;3.33;;;;;;;24.70;57.38;99763.75;5029643;28;20033;-85
2023/08/23 02:57:22;;;;;;;5.15;3.00;;;;;;;24.81;57.85;99807.88;5030112;28;20417;-86
2023/08/23 02:59:47;;;;;;;7.80;4.43;;;;;;;24.71;57.52;99752.00;5028459;28;20037;-84
2023/08/23 03:02:13;;;;;;;4.90;2.80;;;;;;;24.95;57.23;99793.38;5028745;28;20132;-89
2023/08/23 03:04:38;;;;;;;4.38;3.00;;;;;;;24.80;57.35;99789.09;5029956;28;20038;-90
2023/08/23 03:07:04;;;;;;;3.55;2.65;;;;;;;24.73;57.42;99793.19;5030483;28;20040;-90
2023/08/23 03:09:29;;;;;;;6.40;3.70;;;;;;;24.64;56.90;99779.41;5028414;28;20032;-90
2023/08/23 03:11:55;;;;;;;11.35;4.50;;;;;;;24.65;56.58;99782.97;5029521;28;20025;-87
2023/08/23 03:14:20;;;;;;;7.75;4.75;;;;;;;24.56;56.57;99778.22;5029927;28;20061;-90
2023/08/23 03:16:51;;;;;;;6.88;2.85;;;;;;;24.59;56.64;99781.59;5012757;28;20071;-88
2023/08/23 03:19:16;;;;;;;5.13;3.58;;;;;;;24.70;56.85;99791.63;5030072;28;20099;-86
2023/08/23 03:21:41;;;;;;;4.97;3.13;;;;;;;24.75;56.54;99786.72;5029740;28;20033;-87
2023/08/23 03:24:07;;;;;;;4.97;2.92;;;;;;;24.49;56.39;99767.00;5028501;28;20507;-87
2023/08/23 03:26:32;;;;;;;5.97;3.50;;;;;;;24.87;56.29;99805.69;5029770;28;20029;-87
2023/08/23 03:28:58;;;;;;;5.07;3.40;;;;;;;24.67;55.95;99776.50;5028361;28;20120;-87
2023/08/23 03:31:23;;;;;;;4.10;2.33;;;;;;;24.53;56.68;99773.91;5010791;28;20052;-90
2023/08/23 03:33:49;;;;;;;4.72;3.17;;;;;;;24.38;57.11;99765.09;5030693;28;20025;-89
2023/08/23 03:36:14;;;;;;;8.23;4.47;;;;;;;24.29;57.22;99763.03;5027965;28;20050;-87
2023/08/23 03:38:40;;;;;;;6.30;2.92;;;;;;;24.42;58.08;99806.16;5022257;28;20034;-84
2023/08/23 03:41:12;;;;;;;4.95;2.45;;;;;;;24.01;59.07;99793.78;5026489;28;20069;-90
2023/08/23 03:43:38;;;;;;;3.70;3.03;;;;;;;23.83;59.76;99788.63;5018434;28;20047;-83
2023/08/23 03:46:03;;;;;;;6.13;2.85;;;;;;;23.92;59.80;99793.41;5028618;28;20034;-84
2023/08/23 03:48:29;;;;;;;3.25;2.78;;;;;;;23.70;59.29;99739.31;5010562;28;20041;-90
2023/08/23 03:51:00;;;;;;;7.20;3.58;;;;;;;24.18;58.89;99790.75;5017619;28;20025;-88
2023/08/23 03:53:26;;;;;;;5.65;3.90;;;;;;;24.09;58.70;99765.31;5027176;28;20903;-88
2023/08/23 03:55:53;;;;;;;7.03;3.97;;;;;;;24.52;58.01;99828.81;5026765;28;20045;-89
2023/08/23 03:58:19;;;;;;;7.85;3.03;;;;;;;24.36;57.56;99796.69;5029341;28;20061;-88
2023/08/23 04:00:51;;;;;;;6.38;3.67;;;;;;;24.29;57.82;99779.22;5026973;28;20499;-88
2023/08/23 04:03:17;;;;;;;4.28;2.85;;;;;;;24.34;58.38;99790.53;5025565;28;20056;-89
2023/08/23 04:05:42;;;;;;;5.10;2.97;;;;;;;24.49;57.92;99811.00;5031035;28;20483;-88
2023/08/23 04:08:08;;;;;;;6.60;2.47;;;;;;;24.43;57.91;99784.47;5032385;28;20040;-89
2023/08/23 04:10:34;;;;;;;5.55;3.05;;;;;;;24.70;57.57;99829.38;5028459;28;20021;-88
2023/08/23 04:13:00;;;;;;;5.63;3.38;;;;;;;24.39;57.67;99777.59;5025518;28;20030;-88
2023/08/23 04:15:25;;;;;;;4.18;2.75;;;;;;;24.24;58.23;99762.53;5031435;28;20053;-88
2023/08/23 04:17:50;;;;;;;3.92;2.63;;;;;;;24.49;58.19;99815.53;5032354;28;20037;-88
2023/08/23 04:20:16;;;;;;;4.95;3.38;;;;;;;24.47;58.05;99791.38;5031674;28;20095;-89
2023/08/23 04:22:41;;;;;;;6.30;4.13;;;;;;;24.55;58.63;99816.94;5022950;28;20092;-89
2023/08/23 04:25:07;;;;;;;3.92;2.85;;;;;;;24.59;58.08;99805.88;5025869;28;20029;-88
2023/08/23 04:27:33;;;;;;;13.05;3.63;;;;;;;24.52;58.66;99807.22;5031208;28;20116;-88
2023/08/23 04:29:58;;;;;;;5.25;3.45;;;;;;;24.55;58.79;99808.88;5032171;28;20186;-88
2023/08/23 04:32:24;;;;;;;5.13;3.72;;;;;;;24.76;58.12;99807.34;5031946;28;20034;-88
2023/08/23 04:34:49;;;;;;;4.90;3.40;;;;;;;25.02;57.67;99839.63;5032138;28;20021;-87
2023/08/23 04:37:15;;;;;;;5.07;2.63;;;;;;;24.75;57.79;99789.44;5031864;28;20526;-88
2023/08/23 04:39:40;;;;;;;4.82;2.78;;;;;;;24.79;57.96;99793.63;5030298;28;20078;-87
2023/08/23 04:42:06;;;;;;;7.68;3.80;;;;;;;24.98;58.25;99817.44;5029818;28;20029;-89
2023/08/23 04:44:31;;;;;;;4.03;3.17;;;;;;;25.01;57.88;99797.47;5029218;28;20029;-87
2023/08/23 04:46:59;;;;;;;7.63;3.47;;;;;;;25.16;57.57;99807.13;5030482;28;20029;-87
2023/08/23 04:49:25;;;;;;;4.60;3.13;;;;;;;25.19;57.43;99792.53;5032581;28;20037;-89
2023/08/23 04:51:50;;;;;;;6.57;3.72;;;;;;;25.33;57.60;99814.00;5032114;28;20028;-89
2023/08/23 04:54:16;;;;;;;6.28;3.38;;;;;;;25.22;57.36;99773.41;5032256;28;20025;-88
2023/08/23 04:56:41;;;;;;;6.45;3.47;;;;;;;25.57;57.25;99809.56;5032325;28;20511;-88
2023/08/23 04:59:06;;;;;;;5.47;3.33;;;;;;;25.69;56.59;99824.84;5030950;28;20026;-89
2023/08/23 05:01:32;;;;;;;7.20;4.72;;;;;;;25.73;56.15;99804.69;5031087;28;20190;-87
2023/08/23 05:03:57;;;;;;;7.60;3.92;;;;;;;26.04;55.34;99810.47;5031719;28;20034;-90
2023/08/23 05:06:23;;;;;;;5.43;2.85;;;;;;;25.92;55.18;99783.41;5014176;28;20426;-90
2023/08/23 05:08:49;;;;;;;5.53;3.50;;;;;;;26.07;54.83;99810.22;5013259;28;20043;-90
2023/08/23 05:11:14;;;;;;;10.98;4.05;;;;;;;25.98;55.12;99792.03;5031361;28;20056;-91
2023/08/23 05:13:39;;;;;;;4.88;2.83;;;;;;;25.96;55.16;99791.25;5030938;28;20086;-91
2023/08/23 05:16:05;;;;;;;5.97;4.15;;;;;;;26.09;55.43;99819.09;5031695;28;20488;-91
2023/08/23 05:18:30;;;;;;;5.18;2.95;;;;;;;25.96;55.24;99783.16;5030574;28;20558;-92
2023/08/23 05:20:59;;;;;;;7.38;4.60;;;;;;;26.27;54.51;99785.22;5030722;28;20128;-92
2023/08/23 05:23:25;;;;;;;5.28;3.75;;;;;;;26.72;54.11;99826.78;5030018;28;20120;-91
2023/08/23 05:25:52;;;;;;;8.43;4.00;;;;;;;26.04;54.41;99767.22;5031190;28;20105;-90
2023/08/23 05:28:21;;;;;;;7.22;3.72;;;;;;;26.47;53.84;99796.28;5029965;28;20030;-91
2023/08/23 05:30:49;;;;;;;11.23;4.03;;;;;;;26.41;54.11;99796.75;5030632;28;20048;-90
2023/08/23 05:33:15;;;;;;;7.13;3.13;;;;;;;26.86;53.19;99799.47;5030733;28;20036;-91
2023/08/23 05:35:41;;;;;;;6.82;4.53;;;;;;;27.14;52.08;99784.53;5030736;28;20442;-91
2023/08/23 05:38:06;;;;;;;7.43;3.40;;;;;;;27.16;51.50;99785.25;5029798;28;20410;-91
2023/08/23 05:40:32;;;;;;;5.20;3.17;;;;;;;27.34;52.03;99803.69;5030296;28;20025;-88
2023/08/23 05:42:57;;;;;;;5.03;3.60;;;;;;;27.00;52.76;99790.22;5031143;28;20045;-90
2023/08/23 05:45:26;;;;;;;4.65;2.47;;;;;;;27.23;51.61;99787.47;5031256;28;20490;-89
2023/08/23 05:47:55;;;;;;;6.22;3.75;;;;;;;27.21;51.26;99765.09;5030668;28;20457;-88
2023/08/23 05:50:22;;;;;;;5.35;3.42;;;;;;;27.43;50.88;99780.41;5029996;28;20117;-87
2023/08/23 05:52:48;;;;;;;5.07;3.63;;;;;;;27.34;51.15;99760.38;5028126;28;20032;-88
2023/08/23 05:55:13;;;;;;;5.93;3.30;;;;;;;27.61;49.65;99769.88;5030188;28;20037;-87
2023/08/23 05:57:39;;;;;;;6.15;3.50;;;;;;;27.87;48.97;99776.63;5030542;28;20476;-87
2023/08/23 06:00:05;;;;;;;4.82;2.97;;;;;;;28.23;48.80;99776.28;5029148;28;20565;-86
2023/08/23 06:02:31;;;;;;;5.68;3.17;;;;;;;28.45;48.33;99798.81;5029901;28;20041;-86
2023/08/23 06:04:57;;;;;;;6.80;3.55;;;;;;;28.55;47.31;99759.88;5030278;28;20108;-87
2023/08/23 06:07:22;;;;;;;5.28;3.25;;;;;;;28.73;47.54;99778.25;5030067;28;20443;-88
2023/08/23 06:09:48;;;;;;;6.43;4.20;;;;;;;29.24;46.57;99806.25;5029446;28;20033;-87
2023/08/23 06:12:13;;;;;;;3.85;2.65;;;;;;;29.12;45.56;99791.94;5028661;28;20021;-87
2023/08/23 06:14:39;;;;;;;7.10;4.78;;;;;;;29.20;45.41;99786.69;5029299;28;20112;-87
2023/08/23 06:17:04;;;;;;;7.95;5.13;;;;;;;29.39;44.70;99807.56;5029951;28;20471;-87
2023/08/23 06:19:30;;;;;;;5.55;3.38;;;;;;;29.75;45.31;99794.28;5027356;28;20033;-88
2023/08/23 06:21:55;;;;;;;5.50;3.20;;;;;;;30.32;43.61;99780.75;5029490;28;20107;-89
2023/08/23 06:24:21;;;;;;;6.35;3.63;;;;;;;30.47;42.61;99808.34;5012464;28;20030;-92
2023/08/23 06:26:49;;;;;;;6.53;3.38;;;;;;;30.16;42.86;99792.22;5016064;28;20419;-89
2023/08/23 06:29:15;;;;;;;7.05;3.78;;;;;;;30.56;42.78;99816.66;5028540;28;20040;-87
2023/08/23 06:31:40;;;;;;;5.22;3.83;;;;;;;30.88;42.83;99805.31;5024903;28;20407;-88
2023/08/23 06:34:06;;;;;;;7.55;3.60;;;;;;;30.98;42.08;99817.03;5029321;28;20045;-89
2023/08/23 06:36:31;;;;;;;6.68;3.55;;;;;;;30.78;41.89;99804.50;5027358;28;20413;-90
2023/08/23 06:38:57;;;;;;;6.43;4.13;;;;;;;30.67;41.25;99787.34;5028658;28;20048;-88
2023/08/23 06:41:22;;;;;;;6.50;3.65;;;;;;;30.78;42.36;99799.06;5028331;28;20440;-90
2023/08/23 06:43:48;;;;;;;4.30;3.08;;;;;;;30.96;41.64;99802.69;5028426;28;20033;-89
2023/08/23 06:46:13;;;;;;;4.47;3.47;;;;;;;31.44;40.56;99808.00;5029421;28;20030;-90
2023/08/23 06:48:39;;;;;;;4.82;3.22;;;;;;;31.50;40.53;99819.13;5029488;28;20415;-90
2023/08/23 06:51:04;;;;;;;9.30;3.80;;;;;;;31.46;40.64;99816.88;5028548;28;20116;-92
2023/08/23 06:53:31;;;;;;;8.73;4.05;;;;;;;31.44;40.39;99794.38;5028380;28;20815;-90
2023/08/23 06:55:57;;;;;;;5.88;3.70;;;;;;;31.75;39.46;99814.78;5028486;28;20029;-91
2023/08/23 06:58:22;;;;;;;5.88;4.22;;;;;;;31.89;38.58;99799.72;5028671;28;20566;-89
2023/08/23 07:00:47;;;;;;;5.57;3.42;;;;;;;32.27;39.04;99775.81;5027887;28;20112;-90
2023/08/23 07:03:13;;;;;;;4.88;3.10;;;;;;;32.30;37.90;99770.03;5028961;28;20033;-90
2023/08/23 07:05:38;;;;;;;6.95;2.85;;;;;;;32.53;37.98;99815.88;5029739;28;20040;-90
2023/08/23 07:08:04;;;;;;;3.38;2.60;;;;;;;32.39;37.92;99791.91;5029159;28;20494;-91
2023/08/23 07:10:30;;;;;;;5.20;2.85;;;;;;;32.57;37.87;99805.50;5029024;28;20152;-90
2023/08/23 07:12:56;;;;;;;9.60;4.70;;;;;;;32.71;37.83;99788.50;5029558;28;20107;-90
2023/08/23 07:15:22;;;;;;;7.15;3.97;;;;;;;33.02;36.88;99772.41;5011268;28;20071;-91
2023/08/23 07:17:48;;;;;;;6.03;2.78;;;;;;;33.33;36.58;99795.56;5029847;28;20033;-89
2023/08/23 07:20:15;;;;;;;5.20;3.22;;;;;;;33.05;37.17;99771.22;5027750;28;20091;-88
2023/08/23 07:22:41;;;;;;;4.97;2.40;;;;;;;33.92;35.95;99802.81;5028994;28;20036;-88
2023/08/23 07:25:07;;;;;;;4.97;3.05;;;;;;;34.02;35.72;99801.59;5028314;28;20072;-88
2023/08/23 07:27:33;;;;;;;6.20;3.67;;;;;;;33.95;34.97;99775.94;5012478;28;20478;-86
2023/08/23 07:29:59;;;;;;;8.00;3.08;;;;;;;33.64;35.77;99795.75;5029930;28;20030;-86
2023/08/23 07:32:25;;;;;;;4.45;3.13;;;;;;;33.64;35.33;99787.56;5028908;28;20025;-90
2023/08/23 07:34:51;;;;;;;5.53;3.30;;;;;;;34.10;34.97;99762.44;5011711;28;20049;-88
2023/08/23 07:37:17;;;;;;;5.88;3.38;;;;;;;34.63;34.68;99778.38;5028793;28;20376;-90
2023/08/23 07:39:43;;;;;;;5.95;3.25;;;;;;;34.37;35.92;99760.31;5032648;28;20037;-92
2023/08/23 07:42:09;;;;;;;4.43;3.45;;;;;;;34.68;34.27;99767.75;5033122;28;20463;-90
2023/08/23 07:44:34;;;;;;;4.93;3.30;;;;;;;34.70;33.54;99774.75;5033284;28;20171;-91
2023/08/23 07:47:00;;;;;;;4.60;2.92;;;;;;;34.48;34.32;99739.94;5032861;28;20411;-91
2023/08/23 07:49:26;;;;;;;4.88;3.35;;;;;;;35.21;33.70;99773.50;5034151;28;20033;-91
2023/08/23 07:51:51;;;;;;;8.50;2.65;;;;;;;34.88;33.68;99768.19;5015328;28;20037;-88
2023/08/23 07:54:17;;;;;;;6.15;3.60;;;;;;;35.02;33.55;99755.63;5033472;28;20065;-90
2023/08/23 07:56:42;;;;;;;5.20;3.13;;;;;;;35.37;33.22;99776.16;5033907;28;20458;-89
2023/08/23 07:59:08;;;;;;;5.80;4.07;;;;;;;35.17;33.20;99726.41;5033010;28;20038;-89
2023/08/23 08:01:33;;;;;;;4.70;3.03;;;;;;;35.75;32.80;99795.41;5033516;28;20408;-92
2023/08/23 08:03:59;;;;;;;6.07;4.22;;;;;;;35.21;33.04;99757.06;5033814;28;20033;-90
2023/08/23 08:06:24;;;;;;;5.72;3.03;;;;;;;35.92;31.70;99749.50;5033274;28;20025;-89
2023/08/23 08:08:50;;;;;;;6.13;3.22;;;;;;;36.43;30.81;99753.44;5033458;28;20489;-88
2023/08/23 08:11:16;;;;;;;5.50;2.97;;;;;;;35.88;31.87;99782.97;5032726;28;20022;-88
2023/08/23 08:13:41;;;;;;;3.85;2.83;;;;;;;36.05;32.18;99761.72;5010033;28;20077;-90
2023/08/23 08:16:09;;;;;;;4.95;3.33;;;;;;;36.03;31.34;99764.66;5013463;28;20044;-89
2023/08/23 08:18:35;;;;;;;4.70;3.35;;;;;;;36.17;30.53;99741.84;5013540;28;20032;-90
2023/08/23 08:21:00;;;;;;;5.88;3.50;;;;;;;36.36;30.63;99745.09;5032732;28;20120;-89
2023/08/23 08:23:26;;;;;;;4.95;2.80;;;;;;;36.82;31.02;99736.63;5032536;28;20072;-90
2023/08/23 08:25:51;;;;;;;4.32;3.03;;;;;;;37.12;29.36;99743.94;5031814;28;20047;-92
2023/08/23 08:28:17;;;;;;;3.90;2.45;;;;;;;36.78;28.63;99753.69;5022642;28;20143;-88
2023/08/23 08:30:42;;;;;;;3.28;2.15;;;;;;;36.31;30.22;99747.56;5030067;28;20526;-85
2023/08/23 08:33:10;;;;;;;4.63;2.55;;;;;;;36.25;29.90;99729.91;5031396;28;20036;-87
2023/08/23 08:35:35;;;;;;;5.18;3.30;;;;;;;36.83;29.14;99749.34;5031880;28;20033;-87
2023/08/23 08:38:01;;;;;;;8.65;2.85;;;;;;;36.71;28.18;99751.69;5029896;28;20029;-89
2023/08/23 08:40:27;;;;;;;4.53;2.97;;;;;;;37.07;28.01;99739.03;5030831;28;20026;-87
2023/08/23 08:42:52;;;;;;;5.25;3.05;;;;;;;37.10;29.18;99744.13;5009016;28;20074;-86
2023/08/23 08:45:19;;;;;;;11.35;3.10;;;;;;;37.30;27.64;99724.28;5031887;28;20040;-90
2023/08/23 08:47:46;;;;;;;6.18;3.70;;;;;;;37.85;27.72;99730.06;5031860;28;20037;-86
2023/08/23 08:50:12;;;;;;;7.65;3.53;;;;;;;38.20;27.48;99733.72;5030861;28;20025;-86
2023/08/23 08:52:42;;;;;;;6.22;3.15;;;;;;;37.85;27.71;99728.19;5013355;28;20021;-85
2023/08/23 08:55:10;;;;;;;7.20;2.67;;;;;;;38.20;26.44;99744.75;5032269;28;20024;-84
2023/08/23 08:57:36;;;;;;;13.05;5.75;;;;;;;37.91;26.71;99705.34;5031607;28;20026;-91
2023/08/23 09:00:03;;;;;;;20.10;5.65;;;;;;;37.44;26.22;99680.19;5031796;28;20025;-89
2023/08/23 09:02:30;;;;;;;6.45;2.72;;;;;;;37.42;27.14;99733.72;5032107;28;20061;-88
2023/08/23 09:04:56;;;;;;;20.35;5.18;;;;;;;37.36;27.22;99707.84;5032117;28;20029;-87
2023/08/23 09:07:22;;;;;;;3.55;2.20;;;;;;;37.07;28.12;99706.88;5031604;28;20123;-87
2023/08/23 09:09:48;;;;;;;7.20;2.92;;;;;;;37.22;26.90;99712.38;5032048;28;20542;-90
2023/08/23 09:12:14;;;;;;;7.20;3.88;;;;;;;37.49;26.61;99690.59;5032191;28;20030;-87
2023/08/23 09:14:39;;;;;;;4.13;2.63;;;;;;;37.81;26.99;99699.34;5031704;28;20025;-88
2023/08/23 09:17:07;;;;;;;3.55;2.33;;;;;;;38.10;25.68;99714.78;5032189;28;20480;-94
2023/08/23 09:19:40;;;;;;;3.92;2.38;;;;;;;37.87;26.29;99695.78;5030330;28;20052;-87
2023/08/23 09:22:05;;;;;;;4.00;2.55;;;;;;;38.11;26.19;99707.38;5014098;28;20091;-91
2023/08/23 09:24:33;;;;;;;11.43;5.07;;;;;;;38.12;25.61;99700.81;5030589;28;20025;-92
2023/08/23 09:26:59;;;;;;;11.10;2.83;;;;;;;38.15;25.54;99703.16;5023215;28;20135;-90
2023/08/23 09:29:25;;;;;;;5.40;2.78;;;;;;;37.82;26.04;99687.31;5012439;28;20021;-84
2023/08/23 09:31:50;;;;;;;3.15;1.90;;;;;;;37.95;26.86;99667.25;5030826;28;20029;-88
2023/08/23 09:34:16;;;;;;;6.25;4.32;;;;;;;38.00;25.94;99664.75;5030368;28;20037;-89
2023/08/23 09:36:42;;;;;;;3.05;2.25;;;;;;;37.86;25.62;99672.06;5029381;28;20092;-88
2023/08/23 09:39:11;;;;;;;5.05;2.63;;;;;;;38.04;26.11;99681.72;5013388;28;20377;-89
2023/08/23 09:41:39;;;;;;;4.95;3.33;;;;;;;38.06;25.49;99666.69;5031119;28;20124;-88
2023/08/23 09:44:04;;;;;;;4.53;2.40;;;;;;;37.84;24.96;99690.69;5030397;28;20068;-87
2023/08/23 09:46:34;;;;;;;2.00;1.58;;;;;;;37.54;25.63;99690.88;5030324;28;20159;-87
2023/08/23 09:49:03;;;;;;;2.15;1.63;;;;;;;37.30;27.00;99658.28;5030229;28;20148;-86
2023/08/23 09:51:30;;;;;;;4.32;3.08;;;;;;;37.67;24.90;99661.75;5030084;28;20170;-88
2023/08/23 09:53:57;;;;;;;2.72;1.90;;;;;;;38.12;25.04;99684.31;5029708;28;20825;-87
2023/08/23 09:56:24;;;;;;;3.75;2.08;;;;;;;38.45;24.16;99686.41;5030409;28;20071;-87
2023/08/23 09:58:50;;;;;;;8.93;2.80;;;;;;;37.54;24.39;99641.34;5030277;28;20034;-88
2023/08/23 10:01:16;;;;;;;5.18;2.40;;;;;;;37.44;25.84;99627.94;5030028;28;20042;-90
2023/08/23 10:03:42;;;;;;;3.72;2.40;;;;;;;37.72;26.64;99662.03;5030998;28;20561;-89
2023/08/23 10:06:09;;;;;;;6.35;2.33;;;;;;;37.66;25.00;99663.63;5024807;28;20060;-88
2023/08/23 10:08:36;;;;;;;3.67;1.90;;;;;;;37.72;25.09;99637.28;5029801;28;20091;-88
2023/08/23 10:11:01;;;;;;;4.10;2.55;;;;;;;37.70;24.74;99636.63;5030496;28;20034;-87
2023/08/23 10:13:32;;;;;;;3.17;2.08;;;;;;;37.77;24.77;99615.47;5030197;28;20510;-93
2023/08/23 10:16:00;;;;;;;4.82;2.55;;;;;;;37.75;24.70;99623.94;5030424;28;20025;-90
2023/08/23 10:18:27;;;;;;;4.32;2.97;;;;;;;37.12;25.21;99615.56;5031073;28;20022;-91
2023/08/23 10:20:54;;;;;;;3.65;2.50;;;;;;;36.83;25.13;99644.94;5013004;28;20510;-89
2023/08/23 10:23:21;;;;;;;6.07;2.15;;;;;;;36.93;25.45;99663.81;5029714;28;20087;-91
2023/08/23 10:25:48;;;;;;;5.90;2.22;;;;;;;36.34;26.27;99627.22;5029836;28;20140;-91
2023/08/23 10:28:16;;;;;;;3.70;1.88;;;;;;;36.95;25.68;99658.13;5029666;28;20033;-89
2023/08/23 10:30:46;;;;;;;2.00;1.70;;;;;;;36.92;24.83;99632.75;5029432;28;20037;-89
2023/08/23 10:33:16;;;;;;;6.50;1.63;;;;;;;36.78;23.99;99625.44;5030229;28;20022;-87
2023/08/23 10:35:43;;;;;;;4.90;2.67;;;;;;;37.14;24.13;99632.75;5028987;28;20474;-87
2023/08/23 10:38:09;;;;;;;4.60;1.73;;;;;;;37.15;24.19;99620.69;5015264;28;20615;-87
2023/08/23 10:40:37;;;;;;;3.80;2.40;;;;;;;37.09;23.93;99638.84;5026934;28;20033;-91
2023/08/23 10:43:14;;;;;;;3.40;2.05;;;;;;;37.18;24.17;99627.69;5029140;28;20028;-88
2023/08/23 10:45:52;;;;;;;2.50;1.55;;;;;;;37.06;24.49;99636.47;5030373;28;20055;-87
2023/08/23 10:48:23;;;;;;;13.25;2.35;;;;;;;36.91;25.12;99581.56;5027621;28;20061;-92
2023/08/23 10:50:49;;;;;;;2.63;1.83;;;;;;;36.71;24.14;99586.00;5012550;28;20037;-93
2023/08/23 10:53:16;;;;;;;4.18;1.80;;;;;;;36.67;24.62;99614.91;5030274;28;20513;-90
2023/08/23 10:55:42;;;;;;;5.05;2.15;;;;;;;36.55;24.23;99587.13;5029821;28;20486;-89
2023/08/23 10:58:07;;;;;;;7.03;2.03;;;;;;;37.03;23.94;99616.75;5030033;28;20025;-89
2023/08/23 11:00:33;;;;;;;4.22;2.60;;;;;;;36.95;24.33;99586.69;5029692;28;20495;-90
2023/08/23 11:02:59;;;;;;;2.40;1.63;;;;;;;37.11;24.19;99578.16;5030015;28;20033;-89
2023/08/23 11:05:24;;;;;;;5.53;2.00;;;;;;;37.53;23.41;99586.53;5029142;28;20029;-89
2023/08/23 11:07:50;;;;;;;8.13;1.70;;;;;;;37.49;23.65;99608.06;5029226;28;20091;-87
2023/08/23 11:10:16;;;;;;;3.13;1.75;;;;;;;37.40;23.26;99595.53;5028504;28;20088;-88
2023/08/23 11:12:41;;;;;;;3.88;2.22;;;;;;;37.70;24.05;99589.84;5031850;28;20061;-89
2023/08/23 11:15:07;;;;;;;9.25;2.58;;;;;;;37.91;23.89;99592.50;5036719;28;20034;-89
2023/08/23 11:17:34;;;;;;;2.83;1.98;;;;;;;37.61;23.26;99559.69;5035706;28;20078;-91
2023/08/23 11:20:00;;;;;;;3.70;1.60;;;;;;;37.71;23.10;99592.41;5036628;28;20018;-91
2023/08/23 11:22:25;;;;;;;5.10;2.05;;;;;;;37.59;23.18;99578.31;5035362;28;20321;-90
2023/08/23 11:25:03;;;;;;;3.38;1.55;;;;;;;37.26;23.29;99567.94;5035959;28;20616;-91
2023/08/23 11:27:29;;;;;;;3.08;2.08;;;;;;;37.39;23.20;99561.69;5024190;28;20120;-88
2023/08/23 11:29:58;;;;;;;2.70;1.63;;;;;;;37.24;23.23;99553.53;5035029;28;20117;-89